sensor_id;sensor_type;location;lat;lon;timestamp;pressure;altitude;pressure_sealevel;temperature;humidity
39443;BME280;25147;52.142;9.960;2023-04-07T00:01:32;100603.00;;;2.25;72.44
39443;BME280;25147;52.142;9.960;2023-04-07T00:04:00;100718.59;;;2.76;72.64
39443;BME280;25147;52.142;9.960;2023-04-07T00:06:26;100707.31;;;2.72;72.82
39443;BME280;25147;52.142;9.960;2023-04-07T00:08:55;100463.41;;;1.33;72.59
39443;BME280;25147;52.142;9.960;2023-04-07T00:11:22;100692.50;;;2.64;73.07
39443;BME280;25147;52.142;9.960;2023-04-07T00:13:48;100501.81;;;1.59;72.87
39443;BME280;25147;52.142;9.960;2023-04-07T00:16:15;100708.00;;;2.64;72.70
39443;BME280;25147;52.142;9.960;2023-04-07T00:18:42;100594.00;;;2.06;72.89
39443;BME280;25147;52.142;9.960;2023-04-07T00:21:09;100686.41;;;2.60;73.21
39443;BME280;25147;52.142;9.960;2023-04-07T00:23:36;100608.56;;;2.02;73.33
39443;BME280;25147;52.142;9.960;2023-04-07T00:26:04;100588.72;;;2.01;73.15
39443;BME280;25147;52.142;9.960;2023-04-07T00:28:31;100529.44;;;1.63;73.12
39443;BME280;25147;52.142;9.960;2023-04-07T00:30:58;100634.81;;;2.24;73.58
39443;BME280;25147;52.142;9.960;2023-04-07T00:33:25;100352.53;;;0.54;73.44
39443;BME280;25147;52.142;9.960;2023-04-07T00:35:52;100372.28;;;0.54;73.80
39443;BME280;25147;52.142;9.960;2023-04-07T00:38:19;100680.03;;;2.44;74.04
39443;BME280;25147;52.142;9.960;2023-04-07T00:40:46;100539.50;;;1.52;74.05
39443;BME280;25147;52.142;9.960;2023-04-07T00:43:15;100664.22;;;2.29;73.90
39443;BME280;25147;52.142;9.960;2023-04-07T00:45:41;100502.25;;;1.39;73.79
39443;BME280;25147;52.142;9.960;2023-04-07T00:48:09;100686.06;;;2.43;73.89
39443;BME280;25147;52.142;9.960;2023-04-07T00:50:36;100675.63;;;2.40;73.91
39443;BME280;25147;52.142;9.960;2023-04-07T00:53:03;100639.44;;;1.97;73.96
39443;BME280;25147;52.142;9.960;2023-04-07T00:55:30;100495.44;;;1.05;74.01
39443;BME280;25147;52.142;9.960;2023-04-07T00:57:56;100675.50;;;2.34;74.17
39443;BME280;25147;52.142;9.960;2023-04-07T01:00:26;100394.84;;;0.64;74.18
39443;BME280;25147;52.142;9.960;2023-04-07T01:02:57;100203.38;;;-0.49;73.66
39443;BME280;25147;52.142;9.960;2023-04-07T01:05:29;100341.28;;;0.14;74.21
39443;BME280;25147;52.142;9.960;2023-04-07T01:08:07;100636.06;;;2.00;74.09
39443;BME280;25147;52.142;9.960;2023-04-07T01:10:42;100632.63;;;2.01;74.24
39443;BME280;25147;52.142;9.960;2023-04-07T01:13:21;100677.91;;;2.25;74.02
39443;BME280;25147;52.142;9.960;2023-04-07T01:15:51;100335.63;;;0.29;73.75
39443;BME280;25147;52.142;9.960;2023-04-07T01:18:25;100621.38;;;1.97;74.18
39443;BME280;25147;52.142;9.960;2023-04-07T01:20:55;100492.31;;;1.18;73.77
39443;BME280;25147;52.142;9.960;2023-04-07T01:23:30;100327.81;;;0.25;74.06
39443;BME280;25147;52.142;9.960;2023-04-07T01:26:16;100462.25;;;0.83;74.11
39443;BME280;25147;52.142;9.960;2023-04-07T01:29:03;100509.03;;;0.98;74.53
39443;BME280;25147;52.142;9.960;2023-04-07T01:31:36;100327.56;;;0.15;74.38
39443;BME280;25147;52.142;9.960;2023-04-07T01:34:07;100324.91;;;0.11;74.52
39443;BME280;25147;52.142;9.960;2023-04-07T01:36:35;100357.50;;;0.12;74.61
39443;BME280;25147;52.142;9.960;2023-04-07T01:39:02;100618.25;;;1.74;74.54
39443;BME280;25147;52.142;9.960;2023-04-07T01:41:30;100475.72;;;0.71;74.58
39443;BME280;25147;52.142;9.960;2023-04-07T01:43:59;100520.09;;;0.94;74.54
39443;BME280;25147;52.142;9.960;2023-04-07T01:46:27;100651.97;;;1.80;74.82
39443;BME280;25147;52.142;9.960;2023-04-07T01:48:56;100671.22;;;1.95;74.93
39443;BME280;25147;52.142;9.960;2023-04-07T01:51:25;100327.78;;;-0.10;74.95
39443;BME280;25147;52.142;9.960;2023-04-07T01:53:53;100495.72;;;0.81;75.29
39443;BME280;25147;52.142;9.960;2023-04-07T01:56:20;100345.78;;;-0.12;75.39
39443;BME280;25147;52.142;9.960;2023-04-07T01:58:47;100671.78;;;1.82;75.56
39443;BME280;25147;52.142;9.960;2023-04-07T02:01:14;100694.94;;;1.78;75.79
39443;BME280;25147;52.142;9.960;2023-04-07T02:03:44;100478.13;;;0.65;75.76
39443;BME280;25147;52.142;9.960;2023-04-07T02:06:17;100669.84;;;1.73;76.09
39443;BME280;25147;52.142;9.960;2023-04-07T02:08:48;100180.50;;;-1.36;75.83
39443;BME280;25147;52.142;9.960;2023-04-07T02:11:19;100494.38;;;0.62;76.20
39443;BME280;25147;52.142;9.960;2023-04-07T02:13:48;100480.34;;;0.51;76.42
39443;BME280;25147;52.142;9.960;2023-04-07T02:16:17;100669.53;;;1.59;76.97
39443;BME280;25147;52.142;9.960;2023-04-07T02:18:46;100674.56;;;1.54;77.09
39443;BME280;25147;52.142;9.960;2023-04-07T02:21:15;100480.19;;;0.45;76.86
39443;BME280;25147;52.142;9.960;2023-04-07T02:23:43;100659.81;;;1.49;77.41
39443;BME280;25147;52.142;9.960;2023-04-07T02:26:10;100681.25;;;1.46;77.49
39443;BME280;25147;52.142;9.960;2023-04-07T02:28:36;100045.47;;;-2.22;77.41
39443;BME280;25147;52.142;9.960;2023-04-07T02:31:04;100317.97;;;-0.58;77.80
39443;BME280;25147;52.142;9.960;2023-04-07T02:33:31;100323.00;;;-0.63;77.91
39443;BME280;25147;52.142;9.960;2023-04-07T02:35:57;100673.53;;;1.13;78.59
39443;BME280;25147;52.142;9.960;2023-04-07T02:38:26;100660.09;;;1.26;78.81
39443;BME280;25147;52.142;9.960;2023-04-07T02:40:53;100421.28;;;-0.42;78.48
39443;BME280;25147;52.142;9.960;2023-04-07T02:43:20;100562.94;;;0.55;79.29
39443;BME280;25147;52.142;9.960;2023-04-07T02:45:47;100665.09;;;1.20;79.62
39443;BME280;25147;52.142;9.960;2023-04-07T02:48:14;100661.59;;;1.16;79.74
39443;BME280;25147;52.142;9.960;2023-04-07T02:50:41;100604.53;;;0.71;79.81
39443;BME280;25147;52.142;9.960;2023-04-07T02:53:08;100659.66;;;1.09;80.12
39443;BME280;25147;52.142;9.960;2023-04-07T02:55:37;100659.59;;;1.06;80.06
39443;BME280;25147;52.142;9.960;2023-04-07T02:58:04;100630.63;;;0.83;79.97
39443;BME280;25147;52.142;9.960;2023-04-07T03:00:30;100244.31;;;-1.50;79.65
39443;BME280;25147;52.142;9.960;2023-04-07T03:02:57;100519.88;;;0.19;79.82
39443;BME280;25147;52.142;9.960;2023-04-07T03:05:24;100705.06;;;1.03;80.09
39443;BME280;25147;52.142;9.960;2023-04-07T03:07:51;100658.59;;;1.01;80.39
39443;BME280;25147;52.142;9.960;2023-04-07T03:10:18;100577.16;;;0.43;80.18
39443;BME280;25147;52.142;9.960;2023-04-07T03:12:46;100576.34;;;0.44;80.13
39443;BME280;25147;52.142;9.960;2023-04-07T03:15:13;100585.72;;;0.42;80.05
39443;BME280;25147;52.142;9.960;2023-04-07T03:17:40;100521.78;;;-0.05;80.03
39443;BME280;25147;52.142;9.960;2023-04-07T03:20:08;100337.31;;;-1.02;80.01
39443;BME280;25147;52.142;9.960;2023-04-07T03:22:35;100428.91;;;-0.45;80.06
39443;BME280;25147;52.142;9.960;2023-04-07T03:25:03;100589.78;;;0.33;80.32
39443;BME280;25147;52.142;9.960;2023-04-07T03:27:29;100691.84;;;0.90;80.20
39443;BME280;25147;52.142;9.960;2023-04-07T03:29:57;100627.16;;;0.51;80.10
39443;BME280;25147;52.142;9.960;2023-04-07T03:32:25;100493.81;;;-0.23;80.50
39443;BME280;25147;52.142;9.960;2023-04-07T03:34:51;100669.38;;;0.86;80.97
39443;BME280;25147;52.142;9.960;2023-04-07T03:37:18;100626.34;;;0.52;81.14
39443;BME280;25147;52.142;9.960;2023-04-07T03:39:45;100608.28;;;0.50;81.01
39443;BME280;25147;52.142;9.960;2023-04-07T03:42:12;100686.41;;;0.81;81.22
39443;BME280;25147;52.142;9.960;2023-04-07T03:44:39;100428.97;;;-0.72;80.59
39443;BME280;25147;52.142;9.960;2023-04-07T03:47:07;100733.53;;;0.77;81.04
39443;BME280;25147;52.142;9.960;2023-04-07T03:49:34;100672.50;;;0.74;81.84
39443;BME280;25147;52.142;9.960;2023-04-07T03:52:03;100489.13;;;-0.38;82.56
39443;BME280;25147;52.142;9.960;2023-04-07T03:54:30;100728.19;;;0.69;82.46
39443;BME280;25147;52.142;9.960;2023-04-07T03:56:57;100366.81;;;-1.17;82.09
39443;BME280;25147;52.142;9.960;2023-04-07T03:59:24;100415.34;;;-0.98;82.17
39443;BME280;25147;52.142;9.960;2023-04-07T04:01:51;100275.91;;;-1.80;82.02
39443;BME280;25147;52.142;9.960;2023-04-07T04:04:19;100341.13;;;-1.46;82.15
39443;BME280;25147;52.142;9.960;2023-04-07T04:06:49;100527.88;;;-0.61;82.28
39443;BME280;25147;52.142;9.960;2023-04-07T04:09:16;100578.84;;;-0.18;82.50
39443;BME280;25147;52.142;9.960;2023-04-07T04:11:43;100692.22;;;0.44;83.05
39443;BME280;25147;52.142;9.960;2023-04-07T04:14:10;100700.75;;;0.41;83.31
39443;BME280;25147;52.142;9.960;2023-04-07T04:16:36;100622.94;;;-0.06;83.43
39443;BME280;25147;52.142;9.960;2023-04-07T04:19:03;100533.75;;;-0.65;83.67
39443;BME280;25147;52.142;9.960;2023-04-07T04:21:31;100711.72;;;0.35;83.97
39443;BME280;25147;52.142;9.960;2023-04-07T04:23:58;100543.59;;;-0.78;83.95
39443;BME280;25147;52.142;9.960;2023-04-07T04:26:25;100402.56;;;-1.51;83.94
39443;BME280;25147;52.142;9.960;2023-04-07T04:28:54;100705.56;;;0.30;84.63
39443;BME280;25147;52.142;9.960;2023-04-07T04:31:20;100697.81;;;0.29;84.66
39443;BME280;25147;52.142;9.960;2023-04-07T04:33:47;100593.03;;;-0.31;84.95
39443;BME280;25147;52.142;9.960;2023-04-07T04:36:15;100472.19;;;-1.16;84.93
39443;BME280;25147;52.142;9.960;2023-04-07T04:38:43;100680.19;;;0.14;85.25
39443;BME280;25147;52.142;9.960;2023-04-07T04:41:10;100622.03;;;-0.37;85.16
39443;BME280;25147;52.142;9.960;2023-04-07T04:43:37;100636.97;;;-0.25;85.80
39443;BME280;25147;52.142;9.960;2023-04-07T04:46:04;100728.47;;;0.21;85.99
39443;BME280;25147;52.142;9.960;2023-04-07T04:48:31;100536.75;;;-0.78;85.37
39443;BME280;25147;52.142;9.960;2023-04-07T04:50:58;100722.47;;;0.21;85.48
39443;BME280;25147;52.142;9.960;2023-04-07T04:53:25;100657.19;;;-0.09;85.37
39443;BME280;25147;52.142;9.960;2023-04-07T04:55:53;100641.56;;;-0.15;85.43
39443;BME280;25147;52.142;9.960;2023-04-07T04:58:20;100628.25;;;-0.30;84.97
39443;BME280;25147;52.142;9.960;2023-04-07T05:00:47;100613.53;;;-0.34;85.11
39443;BME280;25147;52.142;9.960;2023-04-07T05:03:14;100713.22;;;0.27;84.95
39443;BME280;25147;52.142;9.960;2023-04-07T05:05:41;100481.75;;;-1.10;84.64
39443;BME280;25147;52.142;9.960;2023-04-07T05:08:09;100622.50;;;-0.22;85.01
39443;BME280;25147;52.142;9.960;2023-04-07T05:10:37;100718.50;;;0.32;85.23
39443;BME280;25147;52.142;9.960;2023-04-07T05:13:06;100719.41;;;0.34;85.48
39443;BME280;25147;52.142;9.960;2023-04-07T05:15:33;100545.63;;;-0.68;84.83
39443;BME280;25147;52.142;9.960;2023-04-07T05:18:00;100732.41;;;0.37;84.78
39443;BME280;25147;52.142;9.960;2023-04-07T05:20:27;100627.00;;;-0.14;84.68
39443;BME280;25147;52.142;9.960;2023-04-07T05:22:54;100420.22;;;-1.34;84.16
39443;BME280;25147;52.142;9.960;2023-04-07T05:25:21;100575.81;;;-0.63;83.96
39443;BME280;25147;52.142;9.960;2023-04-07T05:27:50;100432.50;;;-1.26;83.68
39443;BME280;25147;52.142;9.960;2023-04-07T05:30:19;100733.31;;;0.39;83.82
39443;BME280;25147;52.142;9.960;2023-04-07T05:32:46;100189.53;;;-2.61;83.39
39443;BME280;25147;52.142;9.960;2023-04-07T05:35:14;100440.63;;;-1.12;83.66
39443;BME280;25147;52.142;9.960;2023-04-07T05:37:40;100722.63;;;0.55;83.68
39443;BME280;25147;52.142;9.960;2023-04-07T05:40:08;100726.88;;;0.53;83.21
39443;BME280;25147;52.142;9.960;2023-04-07T05:42:35;100726.19;;;0.60;83.56
39443;BME280;25147;52.142;9.960;2023-04-07T05:45:02;100545.47;;;-0.46;83.46
39443;BME280;25147;52.142;9.960;2023-04-07T05:47:31;100381.66;;;-1.36;83.25
39443;BME280;25147;52.142;9.960;2023-04-07T05:49:58;100561.56;;;-0.23;83.20
39443;BME280;25147;52.142;9.960;2023-04-07T05:52:25;100737.81;;;0.76;83.41
39443;BME280;25147;52.142;9.960;2023-04-07T05:54:52;100458.66;;;-0.82;83.65
39443;BME280;25147;52.142;9.960;2023-04-07T05:57:19;100536.63;;;-0.25;83.11
39443;BME280;25147;52.142;9.960;2023-04-07T05:59:45;100649.94;;;0.35;83.27
39443;BME280;25147;52.142;9.960;2023-04-07T06:02:13;100735.88;;;0.99;83.25
39443;BME280;25147;52.142;9.960;2023-04-07T06:04:41;100757.25;;;0.95;83.15
39443;BME280;25147;52.142;9.960;2023-04-07T06:07:09;100794.59;;;1.08;82.89
39443;BME280;25147;52.142;9.960;2023-04-07T06:09:36;100767.22;;;1.13;82.54
39443;BME280;25147;52.142;9.960;2023-04-07T06:12:03;100384.69;;;-0.92;81.75
39443;BME280;25147;52.142;9.960;2023-04-07T06:14:31;100756.19;;;1.19;81.73
39443;BME280;25147;52.142;9.960;2023-04-07T06:16:58;100609.88;;;0.45;81.23
39443;BME280;25147;52.142;9.960;2023-04-07T06:19:25;100525.16;;;-0.06;80.79
39443;BME280;25147;52.142;9.960;2023-04-07T06:21:54;100782.31;;;1.31;81.12
39443;BME280;25147;52.142;9.960;2023-04-07T06:24:21;100631.03;;;0.35;80.56
39443;BME280;25147;52.142;9.960;2023-04-07T06:26:50;100752.41;;;1.38;80.58
39443;BME280;25147;52.142;9.960;2023-04-07T06:29:17;100737.06;;;1.43;80.52
39443;BME280;25147;52.142;9.960;2023-04-07T06:31:45;100477.00;;;-0.12;80.17
39443;BME280;25147;52.142;9.960;2023-04-07T06:34:12;100730.19;;;1.43;79.87
39443;BME280;25147;52.142;9.960;2023-04-07T06:36:39;100524.53;;;0.01;79.49
39443;BME280;25147;52.142;9.960;2023-04-07T06:39:07;100283.09;;;-1.11;79.04
39443;BME280;25147;52.142;9.960;2023-04-07T06:41:34;100755.66;;;1.64;79.31
39443;BME280;25147;52.142;9.960;2023-04-07T06:44:03;100204.81;;;-1.54;79.04
39443;BME280;25147;52.142;9.960;2023-04-07T06:46:30;100424.47;;;-0.18;79.19
39443;BME280;25147;52.142;9.960;2023-04-07T06:48:57;100412.53;;;-0.16;79.30
39443;BME280;25147;52.142;9.960;2023-04-07T06:51:24;100610.91;;;0.85;79.17
39443;BME280;25147;52.142;9.960;2023-04-07T06:53:52;100771.34;;;2.07;78.90
39443;BME280;25147;52.142;9.960;2023-04-07T06:56:21;100780.31;;;2.23;77.29
39443;BME280;25147;52.142;9.960;2023-04-07T06:58:48;100364.88;;;-0.02;76.88
39443;BME280;25147;52.142;9.960;2023-04-07T07:01:15;100649.31;;;1.77;76.62
39443;BME280;25147;52.142;9.960;2023-04-07T07:03:42;100609.47;;;1.66;76.47
39443;BME280;25147;52.142;9.960;2023-04-07T07:06:09;100587.03;;;1.62;75.87
39443;BME280;25147;52.142;9.960;2023-04-07T07:08:36;100548.09;;;1.51;75.69
39443;BME280;25147;52.142;9.960;2023-04-07T07:11:04;100585.34;;;1.64;75.00
39443;BME280;25147;52.142;9.960;2023-04-07T07:13:32;100427.19;;;0.89;74.81
39443;BME280;25147;52.142;9.960;2023-04-07T07:15:59;100768.16;;;2.96;74.90
39443;BME280;25147;52.142;9.960;2023-04-07T07:18:27;100813.06;;;3.01;74.53
39443;BME280;25147;52.142;9.960;2023-04-07T07:20:54;100707.84;;;2.56;74.24
39443;BME280;25147;52.142;9.960;2023-04-07T07:23:21;100661.97;;;2.46;73.60
39443;BME280;25147;52.142;9.960;2023-04-07T07:25:48;100610.88;;;2.31;73.48
39443;BME280;25147;52.142;9.960;2023-04-07T07:28:15;100768.94;;;3.36;73.12
39443;BME280;25147;52.142;9.960;2023-04-07T07:30:44;100808.00;;;3.50;72.72
39443;BME280;25147;52.142;9.960;2023-04-07T07:33:11;100661.81;;;2.80;71.89
39443;BME280;25147;52.142;9.960;2023-04-07T07:35:39;100439.56;;;1.86;71.12
39443;BME280;25147;52.142;9.960;2023-04-07T07:38:06;100775.19;;;3.97;69.61
39443;BME280;25147;52.142;9.960;2023-04-07T07:40:33;100596.56;;;2.94;68.70
39443;BME280;25147;52.142;9.960;2023-04-07T07:43:00;100607.56;;;3.32;67.11
39443;BME280;25147;52.142;9.960;2023-04-07T07:45:31;100796.72;;;4.51;66.06
39443;BME280;25147;52.142;9.960;2023-04-07T07:48:08;100786.56;;;4.65;65.80
39443;BME280;25147;52.142;9.960;2023-04-07T07:50:35;100602.06;;;3.67;64.70
39443;BME280;25147;52.142;9.960;2023-04-07T07:53:03;100484.44;;;2.90;64.01
39443;BME280;25147;52.142;9.960;2023-04-07T07:55:30;100477.94;;;3.15;63.45
39443;BME280;25147;52.142;9.960;2023-04-07T07:57:57;100328.41;;;2.29;62.94
39443;BME280;25147;52.142;9.960;2023-04-07T08:00:24;100300.03;;;2.30;61.98
39443;BME280;25147;52.142;9.960;2023-04-07T08:02:51;100704.50;;;4.69;62.13
39443;BME280;25147;52.142;9.960;2023-04-07T08:05:20;100810.84;;;5.37;61.86
39443;BME280;25147;52.142;9.960;2023-04-07T08:07:46;100697.69;;;4.77;61.62
39443;BME280;25147;52.142;9.960;2023-04-07T08:10:14;100735.25;;;5.11;59.69
39443;BME280;25147;52.142;9.960;2023-04-07T08:12:41;100482.34;;;3.87;60.44
39443;BME280;25147;52.142;9.960;2023-04-07T08:15:08;100398.03;;;3.37;58.56
39443;BME280;25147;52.142;9.960;2023-04-07T08:17:36;100561.72;;;4.58;58.07
39443;BME280;25147;52.142;9.960;2023-04-07T08:20:04;100510.28;;;4.12;57.57
39443;BME280;25147;52.142;9.960;2023-04-07T08:22:32;100501.94;;;4.38;56.76
39443;BME280;25147;52.142;9.960;2023-04-07T08:25:00;100789.13;;;6.19;55.95
39443;BME280;25147;52.142;9.960;2023-04-07T08:27:28;100634.13;;;5.20;55.32
39443;BME280;25147;52.142;9.960;2023-04-07T08:30:00;100647.25;;;5.36;55.61
39443;BME280;25147;52.142;9.960;2023-04-07T08:32:36;100489.25;;;4.67;56.12
39443;BME280;25147;52.142;9.960;2023-04-07T08:35:04;100486.59;;;4.62;56.46
39443;BME280;25147;52.142;9.960;2023-04-07T08:37:34;100497.81;;;4.58;56.46
39443;BME280;25147;52.142;9.960;2023-04-07T08:40:03;100323.28;;;3.63;55.97
39443;BME280;25147;52.142;9.960;2023-04-07T08:42:34;100657.03;;;5.66;55.18
39443;BME280;25147;52.142;9.960;2023-04-07T08:45:05;100817.25;;;6.79;54.39
39443;BME280;25147;52.142;9.960;2023-04-07T08:47:35;100578.13;;;5.50;54.12
39443;BME280;25147;52.142;9.960;2023-04-07T08:50:05;100230.78;;;3.45;53.67
39443;BME280;25147;52.142;9.960;2023-04-07T08:52:39;100598.25;;;5.83;53.39
39443;BME280;25147;52.142;9.960;2023-04-07T08:55:08;100818.25;;;7.07;53.35
39443;BME280;25147;52.142;9.960;2023-04-07T08:57:38;100821.75;;;7.18;52.28
39443;BME280;25147;52.142;9.960;2023-04-07T09:00:07;100792.31;;;7.29;52.42
39443;BME280;25147;52.142;9.960;2023-04-07T09:02:36;100584.50;;;5.97;52.37
39443;BME280;25147;52.142;9.960;2023-04-07T09:05:07;100297.97;;;4.28;52.03
39443;BME280;25147;52.142;9.960;2023-04-07T09:07:39;100529.84;;;5.83;50.66
39443;BME280;25147;52.142;9.960;2023-04-07T09:10:07;100793.25;;;7.64;50.79
39443;BME280;25147;52.142;9.960;2023-04-07T09:12:36;100794.13;;;7.73;50.37
39443;BME280;25147;52.142;9.960;2023-04-07T09:15:04;100691.56;;;7.06;49.81
39443;BME280;25147;52.142;9.960;2023-04-07T09:17:31;100803.72;;;7.92;48.98
39443;BME280;25147;52.142;9.960;2023-04-07T09:19:59;100653.34;;;6.93;49.39
39443;BME280;25147;52.142;9.960;2023-04-07T09:22:34;100728.13;;;7.64;48.86
39443;BME280;25147;52.142;9.960;2023-04-07T09:25:11;100805.47;;;8.12;48.79
39443;BME280;25147;52.142;9.960;2023-04-07T09:27:38;100807.22;;;8.25;49.01
39443;BME280;25147;52.142;9.960;2023-04-07T09:30:10;100638.66;;;7.26;48.32
39443;BME280;25147;52.142;9.960;2023-04-07T09:32:39;100745.53;;;7.98;47.58
39443;BME280;25147;52.142;9.960;2023-04-07T09:35:07;100788.94;;;8.31;47.53
39443;BME280;25147;52.142;9.960;2023-04-07T09:37:34;100829.84;;;8.49;47.58
39443;BME280;25147;52.142;9.960;2023-04-07T09:40:01;100809.84;;;8.51;47.74
39443;BME280;25147;52.142;9.960;2023-04-07T09:42:31;100828.09;;;8.51;47.95
39443;BME280;25147;52.142;9.960;2023-04-07T09:45:00;100798.53;;;8.49;48.00
39443;BME280;25147;52.142;9.960;2023-04-07T09:47:28;100779.38;;;8.44;47.67
39443;BME280;25147;52.142;9.960;2023-04-07T09:49:55;100797.63;;;8.56;48.00
39443;BME280;25147;52.142;9.960;2023-04-07T09:52:48;100776.78;;;8.50;47.53
39443;BME280;25147;52.142;9.960;2023-04-07T09:55:16;100819.34;;;8.72;47.21
39443;BME280;25147;52.142;9.960;2023-04-07T09:57:45;100829.78;;;8.80;47.42
39443;BME280;25147;52.142;9.960;2023-04-07T10:00:13;100494.59;;;7.03;47.32
39443;BME280;25147;52.142;9.960;2023-04-07T10:02:40;100829.78;;;8.88;47.17
39443;BME280;25147;52.142;9.960;2023-04-07T10:07:35;100806.22;;;8.98;46.61
39443;BME280;25147;52.142;9.960;2023-04-07T10:10:02;100666.41;;;8.13;46.11
39443;BME280;25147;52.142;9.960;2023-04-07T10:12:30;100637.66;;;8.22;45.75
39443;BME280;25147;52.142;9.960;2023-04-07T10:15:00;100820.09;;;9.20;45.15
39443;BME280;25147;52.142;9.960;2023-04-07T10:17:27;100665.47;;;8.37;45.23
39443;BME280;25147;52.142;9.960;2023-04-07T10:19:57;100789.59;;;9.24;45.35
39443;BME280;25147;52.142;9.960;2023-04-07T10:22:26;100467.66;;;7.20;45.08
39443;BME280;25147;52.142;9.960;2023-04-07T10:24:56;100609.84;;;8.26;44.33
39443;BME280;25147;52.142;9.960;2023-04-07T10:27:29;100555.22;;;7.89;44.77
39443;BME280;25147;52.142;9.960;2023-04-07T10:29:57;100737.47;;;8.96;44.92
39443;BME280;25147;52.142;9.960;2023-04-07T10:32:27;100638.50;;;8.47;45.34
39443;BME280;25147;52.142;9.960;2023-04-07T10:34:55;100790.41;;;9.35;45.42
39443;BME280;25147;52.142;9.960;2023-04-07T10:37:24;100739.25;;;8.88;44.83
39443;BME280;25147;52.142;9.960;2023-04-07T10:42:52;100797.28;;;9.52;44.41
39443;BME280;25147;52.142;9.960;2023-04-07T10:45:54;100470.19;;;7.58;44.38
39443;BME280;25147;52.142;9.960;2023-04-07T10:48:30;100802.50;;;9.53;44.14
39443;BME280;25147;52.142;9.960;2023-04-07T10:51:12;100654.97;;;8.60;44.54
39443;BME280;25147;52.142;9.960;2023-04-07T10:57:10;100517.94;;;7.63;44.04
39443;BME280;25147;52.142;9.960;2023-04-07T10:59:39;100501.38;;;7.81;43.94
39443;BME280;25147;52.142;9.960;2023-04-07T11:02:30;100800.72;;;9.60;44.60
39443;BME280;25147;52.142;9.960;2023-04-07T11:04:58;100610.63;;;8.52;43.97
39443;BME280;25147;52.142;9.960;2023-04-07T11:07:46;100795.47;;;9.60;43.93
39443;BME280;25147;52.142;9.960;2023-04-07T11:10:14;100812.91;;;9.59;43.39
39443;BME280;25147;52.142;9.960;2023-04-07T11:12:44;100674.09;;;8.65;43.24
39443;BME280;25147;52.142;9.960;2023-04-07T11:15:21;100739.06;;;9.23;43.27
39443;BME280;25147;52.142;9.960;2023-04-07T11:18:12;100792.03;;;9.53;43.20
39443;BME280;25147;52.142;9.960;2023-04-07T11:20:45;100363.59;;;6.88;42.25
39443;BME280;25147;52.142;9.960;2023-04-07T11:23:13;100513.50;;;7.93;42.21
39443;BME280;25147;52.142;9.960;2023-04-07T11:25:42;100812.03;;;9.65;43.05
39443;BME280;25147;52.142;9.960;2023-04-07T11:28:10;100344.50;;;6.92;42.75
39443;BME280;25147;52.142;9.960;2023-04-07T11:30:42;100761.63;;;9.44;43.10
39443;BME280;25147;52.142;9.960;2023-04-07T11:33:15;100713.84;;;9.18;43.30
39443;BME280;25147;52.142;9.960;2023-04-07T11:35:47;100553.31;;;8.31;42.64
39443;BME280;25147;52.142;9.960;2023-04-07T11:38:15;100505.63;;;8.06;42.54
39443;BME280;25147;52.142;9.960;2023-04-07T11:40:42;100818.84;;;9.84;42.60
39443;BME280;25147;52.142;9.960;2023-04-07T11:43:18;100820.56;;;9.92;42.48
39443;BME280;25147;52.142;9.960;2023-04-07T11:45:45;100758.03;;;9.61;41.60
39443;BME280;25147;52.142;9.960;2023-04-07T11:48:28;100806.63;;;9.90;42.11
39443;BME280;25147;52.142;9.960;2023-04-07T11:50:55;100810.09;;;9.92;41.97
39443;BME280;25147;52.142;9.960;2023-04-07T11:53:27;100782.28;;;9.77;41.92
39443;BME280;25147;52.142;9.960;2023-04-07T11:56:01;100804.88;;;9.93;41.81
39443;BME280;25147;52.142;9.960;2023-04-07T11:58:28;100791.84;;;9.84;42.12
39443;BME280;25147;52.142;9.960;2023-04-07T12:00:55;100667.84;;;8.98;41.79
39443;BME280;25147;52.142;9.960;2023-04-07T12:03:26;100805.69;;;10.00;42.04
39443;BME280;25147;52.142;9.960;2023-04-07T12:05:54;100801.34;;;9.97;41.86
39443;BME280;25147;52.142;9.960;2023-04-07T12:08:21;100837.03;;;10.03;42.03
39443;BME280;25147;52.142;9.960;2023-04-07T12:11:02;100661.63;;;9.13;42.16
39443;BME280;25147;52.142;9.960;2023-04-07T12:13:30;100797.03;;;9.93;42.36
39443;BME280;25147;52.142;9.960;2023-04-07T12:15:57;100596.63;;;8.70;42.06
39443;BME280;25147;52.142;9.960;2023-04-07T12:18:27;100817.81;;;10.10;42.28
39443;BME280;25147;52.142;9.960;2023-04-07T12:20:54;100843.06;;;10.14;41.48
39443;BME280;25147;52.142;9.960;2023-04-07T12:23:23;100704.97;;;9.47;41.54
39443;BME280;25147;52.142;9.960;2023-04-07T12:25:50;100590.47;;;8.80;41.59
39443;BME280;25147;52.142;9.960;2023-04-07T12:28:18;100727.50;;;9.63;41.95
39443;BME280;25147;52.142;9.960;2023-04-07T12:30:45;100685.03;;;9.33;41.84
39443;BME280;25147;52.142;9.960;2023-04-07T12:33:11;100809.84;;;10.21;41.82
39443;BME280;25147;52.142;9.960;2023-04-07T12:35:40;100679.72;;;9.44;41.69
39443;BME280;25147;52.142;9.960;2023-04-07T12:38:07;100764.78;;;9.91;42.05
39443;BME280;25147;52.142;9.960;2023-04-07T12:40:33;100828.16;;;10.22;41.94
39443;BME280;25147;52.142;9.960;2023-04-07T12:43:01;100822.88;;;10.27;42.23
39443;BME280;25147;52.142;9.960;2023-04-07T12:45:28;100831.63;;;10.32;42.94
39443;BME280;25147;52.142;9.960;2023-04-07T12:47:56;100815.00;;;10.35;42.78
39443;BME280;25147;52.142;9.960;2023-04-07T12:50:23;100786.38;;;10.13;41.80
39443;BME280;25147;52.142;9.960;2023-04-07T12:52:52;100816.69;;;10.42;41.88
39443;BME280;25147;52.142;9.960;2023-04-07T12:55:20;100809.69;;;10.44;42.53
39443;BME280;25147;52.142;9.960;2023-04-07T12:57:47;100667.34;;;9.64;42.71
39443;BME280;25147;52.142;9.960;2023-04-07T13:00:14;100655.19;;;9.62;42.97
39443;BME280;25147;52.142;9.960;2023-04-07T13:02:41;100803.19;;;10.80;41.94
39443;BME280;25147;52.142;9.960;2023-04-07T13:05:09;100532.75;;;9.16;42.17
39443;BME280;25147;52.142;9.960;2023-04-07T13:07:36;100661.81;;;10.00;42.11
39443;BME280;25147;52.142;9.960;2023-04-07T13:10:06;100667.84;;;10.10;42.39
39443;BME280;25147;52.142;9.960;2023-04-07T13:12:34;100687.75;;;10.21;42.64
39443;BME280;25147;52.142;9.960;2023-04-07T13:15:01;100727.59;;;10.53;42.24